createdAt,value
2019-02-06T00:06:31.107Z,94.50
2019-02-06T00:16:34.945Z,94.60
2019-02-06T00:26:38.817Z,94.60
2019-02-06T00:36:42.812Z,94.50
2019-02-06T00:46:46.587Z,94.40
2019-02-06T00:56:50.354Z,94.30
2019-02-06T01:06:54.190Z,94.20
2019-02-06T01:16:58.041Z,94.30
2019-02-06T01:27:01.818Z,94.20
2019-02-06T01:37:06.172Z,94.10
2019-02-06T01:47:09.918Z,93.90
2019-02-06T01:57:13.680Z,93.80
2019-02-06T02:07:17.624Z,93.70
2019-02-06T02:17:21.391Z,93.60
2019-02-06T02:27:25.223Z,93.50
2019-02-06T02:37:28.988Z,93.40
2019-02-06T02:47:32.767Z,93.30
2019-02-06T02:57:36.969Z,93.30
2019-02-06T03:07:40.737Z,93.30
2019-02-06T03:17:44.598Z,93.30
2019-02-06T03:27:48.370Z,93.20
2019-02-06T03:37:52.690Z,93.20
2019-02-06T03:47:56.462Z,93.10
2019-02-06T03:58:00.294Z,93.20
2019-02-06T04:08:04.166Z,93.30
2019-02-06T04:18:07.994Z,93.30
2019-02-06T04:28:11.770Z,93.10
2019-02-06T04:38:15.618Z,93.20
2019-02-06T04:48:19.391Z,93.10
2019-02-06T04:58:23.154Z,93.10
2019-02-06T05:08:26.933Z,93.20
2019-02-06T05:18:30.714Z,93.20
2019-02-06T05:28:34.544Z,93.20
2019-02-06T05:38:38.460Z,93.30
2019-02-06T05:48:42.315Z,93.30
2019-02-06T05:58:46.164Z,93.30
2019-02-06T06:08:50.263Z,93.20
2019-02-06T06:18:54.087Z,93.10
2019-02-06T06:28:57.918Z,93.00
2019-02-06T06:39:01.796Z,93.50
2019-02-06T06:49:05.635Z,93.00
2019-02-06T06:59:09.410Z,92.80
2019-02-06T07:09:13.176Z,92.90
2019-02-06T07:19:16.968Z,92.80
2019-02-06T07:29:20.744Z,92.50
2019-02-06T07:39:24.514Z,92.60
2019-02-06T07:49:28.271Z,92.40
2019-02-06T07:59:32.110Z,92.20
2019-02-06T08:09:35.888Z,92.10
2019-02-06T08:19:39.756Z,91.90
2019-02-06T08:29:43.513Z,91.60
2019-02-06T08:39:47.267Z,91.40
2019-02-06T08:49:51.040Z,91.10
2019-02-06T08:59:54.890Z,90.90
2019-02-06T09:10:02.063Z,90.50
2019-02-06T09:20:08.630Z,90.60
2019-02-06T09:30:14.750Z,90.30
2019-02-06T09:40:20.442Z,90.10
2019-02-06T09:50:29.516Z,90.00
2019-02-06T10:00:35.587Z,88.90
2019-02-06T10:10:39.647Z,88.00
2019-02-06T10:20:54.110Z,87.30
2019-02-06T10:30:57.955Z,86.40
2019-02-06T10:41:04.466Z,86.00
2019-02-06T10:51:07.866Z,86.30
2019-02-06T11:01:11.698Z,86.50
2019-02-06T11:11:15.601Z,88.70
2019-02-06T11:21:19.366Z,90.10
2019-02-06T11:31:23.196Z,90.70
2019-02-06T11:41:26.962Z,91.20
2019-02-06T11:51:30.731Z,91.90
2019-02-06T12:01:38.229Z,92.20
2019-02-06T12:11:42.074Z,92.50
2019-02-06T12:21:45.935Z,93.10
2019-02-06T12:31:49.699Z,93.40
2019-02-06T12:41:53.464Z,93.70
2019-02-06T12:51:57.503Z,94.00
2019-02-06T13:02:01.278Z,94.70
2019-02-06T13:12:05.174Z,94.90
2019-02-06T13:22:09.093Z,95.10
2019-02-06T13:32:12.860Z,95.20
2019-02-06T13:42:16.699Z,95.40
2019-02-06T13:52:20.454Z,95.50
2019-02-06T14:02:24.298Z,95.60
2019-02-06T14:12:28.181Z,95.60
2019-02-06T14:22:32.010Z,95.80
2019-02-06T14:33:11.416Z,96.10
2019-02-06T14:43:24.214Z,95.80
2019-02-06T14:53:40.042Z,95.80
2019-02-06T15:04:11.890Z,95.90
2019-02-06T15:14:47.626Z,96.00
2019-02-06T15:25:00.419Z,96.00
2019-02-06T15:35:34.972Z,96.00
2019-02-06T15:46:21.765Z,96.10
2019-02-06T15:57:25.474Z,96.10
2019-02-06T16:08:00.495Z,96.10
2019-02-06T16:18:29.550Z,96.20
2019-02-06T16:28:57.385Z,96.30
2019-02-06T16:39:41.450Z,96.40
2019-02-06T16:50:21.888Z,96.30
2019-02-06T17:01:08.864Z,96.30
2019-02-06T17:11:23.632Z,96.40
2019-02-06T17:22:05.393Z,96.60
2019-02-06T17:32:45.290Z,96.90
2019-02-06T17:43:25.183Z,96.70
2019-02-06T17:54:09.523Z,96.80
2019-02-06T18:04:16.122Z,96.90
2019-02-06T18:14:20.002Z,96.80
2019-02-06T18:24:23.853Z,96.90
2019-02-06T18:34:27.739Z,96.90
2019-02-06T18:44:31.890Z,97.00
2019-02-06T18:54:35.827Z,97.00
2019-02-06T19:04:39.738Z,97.00
2019-02-06T19:14:43.692Z,96.90
2019-02-06T19:24:47.560Z,97.00
2019-02-06T19:34:51.326Z,97.10
2019-02-06T19:44:55.108Z,97.20
2019-02-06T19:54:58.970Z,97.20
2019-02-06T20:05:02.857Z,97.20
2019-02-06T20:15:07.190Z,97.20
2019-02-06T20:25:11.671Z,97.20
2019-02-06T20:35:15.942Z,97.20
2019-02-06T20:45:19.932Z,97.20
2019-02-06T20:55:33.087Z,97.20
2019-02-06T21:05:37.715Z,97.30
2019-02-06T21:15:41.527Z,97.30
2019-02-06T21:25:45.355Z,97.30
2019-02-06T21:35:49.139Z,97.40
2019-02-06T21:45:52.917Z,97.50
2019-02-06T21:55:56.863Z,97.60
2019-02-06T22:06:01.224Z,97.50
2019-02-06T22:16:05.646Z,97.60
2019-02-06T22:26:09.499Z,97.50
2019-02-06T22:36:13.299Z,97.60
2019-02-06T22:46:17.366Z,97.60
2019-02-06T22:56:21.382Z,97.60
2019-02-06T23:06:25.567Z,97.70
2019-02-06T23:16:29.511Z,97.60
2019-02-06T23:26:33.455Z,97.60
2019-02-06T23:36:37.638Z,97.60
2019-02-06T23:46:41.414Z,97.60
2019-02-06T23:56:45.255Z,97.70
